createdAt,value
2017-12-08T16:48:42.409Z,22.2
2017-12-08T16:49:50.494Z,22.3
2017-12-08T16:51:04.525Z,22.3
2017-12-08T16:52:06.733Z,22.3
2017-12-08T16:53:15.216Z,22.2
2017-12-08T16:54:22.910Z,22.3
2017-12-08T16:55:30.995Z,22.4
2017-12-08T16:56:39.085Z,22.4
2017-12-08T16:57:47.173Z,22.4
2017-12-08T16:58:55.266Z,22.5
2017-12-08T17:00:03.353Z,22.4
2017-12-08T17:01:12.624Z,22.5
2017-12-08T17:02:25.911Z,22.6
2017-12-08T17:03:27.610Z,22.5
2017-12-08T17:04:35.814Z,22.5
2017-12-08T17:05:43.894Z,22.5
2017-12-08T17:06:51.992Z,22.6
2017-12-08T17:08:00.083Z,22.6
2017-12-08T17:09:10.033Z,22.6
2017-12-08T17:10:18.513Z,22.6
2017-12-08T17:11:30.950Z,22.6
2017-12-08T17:12:40.312Z,22.7
2017-12-08T17:13:47.117Z,22.7
2017-12-08T17:14:55.217Z,22.8
2017-12-08T17:16:03.298Z,22.8
2017-12-08T17:17:11.388Z,22.8
2017-12-08T17:18:19.469Z,22.8
2017-12-08T17:19:27.565Z,22.8
2017-12-08T17:20:35.655Z,22.8
2017-12-08T17:21:43.822Z,22.8
2017-12-08T17:22:51.837Z,22.8
2017-12-08T17:23:59.967Z,22.9
2017-12-08T17:25:08.010Z,22.9
2017-12-08T17:26:16.094Z,22.8
2017-12-08T17:27:24.382Z,23.0
2017-12-08T17:28:32.269Z,23.0
2017-12-08T17:29:40.353Z,22.9
2017-12-08T17:30:48.868Z,22.9
2017-12-08T17:31:56.729Z,22.9
2017-12-08T17:33:04.612Z,22.9
2017-12-08T17:34:12.697Z,22.9
2017-12-08T17:35:21.253Z,23.1
2017-12-08T17:36:35.035Z,23.0
2017-12-08T17:37:37.421Z,23.1
2017-12-08T17:38:45.509Z,23.1
2017-12-08T17:39:53.599Z,23.2
2017-12-08T17:41:01.688Z,23.1
2017-12-08T17:42:09.777Z,23.1
2017-12-08T17:43:17.862Z,23.1
2017-12-08T17:44:26.960Z,23.1
2017-12-08T17:46:43.250Z,23.1
2017-12-08T17:47:51.336Z,23.1
2017-12-08T17:48:59.421Z,23.2
2017-12-08T17:50:07.502Z,23.1
2017-12-08T17:51:15.587Z,23.1
2017-12-08T17:52:23.677Z,23.2
2017-12-08T17:53:31.765Z,23.3
2017-12-08T17:54:39.859Z,23.2
2017-12-08T17:55:47.938Z,23.3
2017-12-08T17:56:56.039Z,23.3
2017-12-08T17:58:04.127Z,23.2
2017-12-08T17:59:12.213Z,23.2
2017-12-08T18:00:21.303Z,23.2
2017-12-08T18:01:28.398Z,23.3
2017-12-08T18:02:36.750Z,23.3
2017-12-08T18:03:44.834Z,23.3
2017-12-08T18:04:52.931Z,23.4
2017-12-08T18:07:12.340Z,23.3
2017-12-08T18:08:20.427Z,23.3
2017-12-08T18:09:28.517Z,23.3
2017-12-08T18:10:36.600Z,23.3
2017-12-08T18:11:44.689Z,23.3
2017-12-08T18:12:52.773Z,23.3
2017-12-08T18:14:00.863Z,23.4
2017-12-08T18:15:08.947Z,23.4
2017-12-08T18:16:17.039Z,23.4
2017-12-08T18:17:25.123Z,23.4
2017-12-08T18:18:33.212Z,23.5
2017-12-08T18:19:41.300Z,23.4
2017-12-08T18:20:49.384Z,23.3
2017-12-08T18:21:57.568Z,23.4
2017-12-08T18:23:05.702Z,23.5
2017-12-08T18:24:13.787Z,23.4
2017-12-08T18:25:21.876Z,23.5
2017-12-08T18:26:29.966Z,23.4
2017-12-08T18:27:38.066Z,23.5
2017-12-08T18:28:46.135Z,23.5
2017-12-08T18:29:54.224Z,23.5
2017-12-08T18:31:02.311Z,23.5
2017-12-08T18:32:10.400Z,23.4
2017-12-08T18:33:18.486Z,23.5
2017-12-08T18:34:26.570Z,23.4
2017-12-08T18:35:34.671Z,23.6
2017-12-08T18:36:42.743Z,23.6
2017-12-08T18:37:50.829Z,23.5
2017-12-08T18:38:58.917Z,23.5
2017-12-08T18:40:07.007Z,23.5
2017-12-08T18:41:15.094Z,23.6
2017-12-08T18:42:23.188Z,23.6
2017-12-08T18:43:31.276Z,23.5
2017-12-08T18:44:39.357Z,23.7
2017-12-08T18:45:47.443Z,23.6
2017-12-08T18:46:55.530Z,23.6
2017-12-08T18:48:03.618Z,23.7
2017-12-08T18:49:11.699Z,23.6
2017-12-08T18:50:19.786Z,23.6
2017-12-08T18:51:27.873Z,23.6
2017-12-08T18:52:35.963Z,23.7
2017-12-08T18:53:44.048Z,23.7
2017-12-08T18:54:52.141Z,23.7
2017-12-08T18:56:00.225Z,23.7
2017-12-08T18:57:08.310Z,23.7
2017-12-08T18:58:16.396Z,23.7
2017-12-08T18:59:24.486Z,23.8
2017-12-08T19:00:32.575Z,23.7
2017-12-08T19:01:40.659Z,23.8
2017-12-08T19:02:48.747Z,23.8
2017-12-08T19:03:56.833Z,23.8
2017-12-08T19:05:04.921Z,23.8
2017-12-08T19:06:13.004Z,23.9
2017-12-08T19:07:21.092Z,23.9
2017-12-08T19:08:29.179Z,23.9
2017-12-08T19:09:37.267Z,23.9
2017-12-08T19:10:45.352Z,23.9
2017-12-08T19:11:53.439Z,23.9
2017-12-08T19:13:01.528Z,24.0
2017-12-08T19:14:09.618Z,24.0
2017-12-08T19:15:17.708Z,24.0
2017-12-08T19:16:25.793Z,24.0
2017-12-08T19:17:33.873Z,24.1
2017-12-08T19:18:41.966Z,24.0
2017-12-08T19:19:50.050Z,24.1
2017-12-08T19:20:58.136Z,24.1
2017-12-08T19:22:06.225Z,24.1
2017-12-08T19:23:14.313Z,24.0
2017-12-08T19:24:22.401Z,24.1
2017-12-08T19:25:30.489Z,24.1
2017-12-08T19:26:38.575Z,24.1
2017-12-08T19:27:46.660Z,24.2
2017-12-08T19:28:54.746Z,24.2
2017-12-08T19:30:02.829Z,24.2
2017-12-08T19:31:10.931Z,24.2
2017-12-08T19:32:19.018Z,24.3
2017-12-08T19:33:27.107Z,24.2
2017-12-08T19:34:35.191Z,24.3
2017-12-08T19:35:43.278Z,24.3
2017-12-08T19:36:51.368Z,24.3
2017-12-08T19:37:59.453Z,24.4
2017-12-08T19:39:07.540Z,24.3
2017-12-08T19:40:15.627Z,24.4
2017-12-08T19:41:23.729Z,24.4
2017-12-08T19:42:31.806Z,24.5
2017-12-08T19:43:39.890Z,24.5
2017-12-08T19:44:47.988Z,24.5
2017-12-08T19:45:56.063Z,24.4
2017-12-08T19:47:04.150Z,24.5
2017-12-08T19:48:12.257Z,24.5
2017-12-08T19:49:20.327Z,24.5
2017-12-08T19:50:28.414Z,24.5
2017-12-08T19:51:36.505Z,24.6
2017-12-08T19:52:44.587Z,24.6
2017-12-08T19:53:52.702Z,24.6
2017-12-08T19:55:00.772Z,24.6
2017-12-08T19:56:08.860Z,24.6
2017-12-08T19:57:16.948Z,24.6
2017-12-08T19:58:25.036Z,24.6
2017-12-08T19:59:33.125Z,24.6
2017-12-08T20:00:41.211Z,24.7
2017-12-08T20:01:49.316Z,24.6
2017-12-08T20:02:57.387Z,24.6
2017-12-08T20:04:05.501Z,24.6
2017-12-08T20:05:13.587Z,24.6
2017-12-08T20:06:21.674Z,24.8
2017-12-08T20:07:29.798Z,24.8
2017-12-08T20:08:37.867Z,24.7
2017-12-08T20:09:45.939Z,24.7
2017-12-08T20:10:54.040Z,24.7
2017-12-08T20:12:02.114Z,24.8
2017-12-08T20:13:10.216Z,24.8
2017-12-08T20:14:18.288Z,24.7
2017-12-08T20:15:26.374Z,24.8
2017-12-08T20:16:34.472Z,24.8
2017-12-08T20:17:42.556Z,24.9
2017-12-08T20:18:50.652Z,24.8
2017-12-08T20:19:58.736Z,24.8
2017-12-08T20:21:06.843Z,24.8
2017-12-08T20:22:14.913Z,24.9
2017-12-08T20:23:23.004Z,24.8
2017-12-08T20:24:31.113Z,24.9
2017-12-08T20:25:39.179Z,24.9
2017-12-08T20:26:47.266Z,24.8
2017-12-08T20:27:55.357Z,24.8
2017-12-08T20:29:03.442Z,24.9
2017-12-08T20:30:11.533Z,24.9
2017-12-08T20:31:19.620Z,24.9
2017-12-08T20:32:27.705Z,24.9
2017-12-08T20:33:35.808Z,24.9
2017-12-08T20:34:43.883Z,24.9
2017-12-08T20:35:51.970Z,24.9
2017-12-08T20:37:00.058Z,24.9
2017-12-08T20:38:08.150Z,24.9
2017-12-08T20:39:16.237Z,24.9
2017-12-08T20:40:24.350Z,25.0
2017-12-08T20:41:32.409Z,24.9
2017-12-08T20:42:40.496Z,25.0
2017-12-08T20:43:48.600Z,25.0
2017-12-08T20:44:56.672Z,25.0
2017-12-08T20:46:04.761Z,25.0
2017-12-08T20:47:12.964Z,24.9
2017-12-08T20:48:21.035Z,25.0
2017-12-08T20:49:29.159Z,25.0
2017-12-08T20:50:37.211Z,25.0
2017-12-08T20:51:45.300Z,24.9
2017-12-08T20:52:53.393Z,25.0
2017-12-08T20:54:01.478Z,24.9
2017-12-08T20:55:09.572Z,25.0
2017-12-08T20:56:17.659Z,25.0
2017-12-08T20:57:25.779Z,24.6
2017-12-08T20:58:33.836Z,24.0
2017-12-08T20:59:41.923Z,23.9
2017-12-08T21:00:50.013Z,24.1
2017-12-08T21:01:58.098Z,24.3
2017-12-08T21:03:06.187Z,24.4
2017-12-08T21:04:14.292Z,24.5
2017-12-08T21:05:22.379Z,24.5
2017-12-08T21:06:30.466Z,24.5
2017-12-08T21:07:38.566Z,24.5
2017-12-08T21:08:46.640Z,24.5
2017-12-08T21:09:54.732Z,24.5
2017-12-08T21:11:02.814Z,24.5
2017-12-08T21:12:10.901Z,24.5
2017-12-08T21:13:18.987Z,24.5
2017-12-08T21:14:27.088Z,24.6
2017-12-08T21:15:35.173Z,24.6
2017-12-08T21:16:43.260Z,24.6
2017-12-08T21:17:51.349Z,24.6
2017-12-08T21:18:59.431Z,24.6
2017-12-08T21:20:07.537Z,24.6
2017-12-08T21:21:15.625Z,24.6
2017-12-08T21:22:23.724Z,24.5
2017-12-08T21:23:31.834Z,24.6
2017-12-08T21:24:39.915Z,24.6
2017-12-08T21:25:47.997Z,24.5
2017-12-08T21:26:56.086Z,24.7
2017-12-08T21:28:04.172Z,24.6
2017-12-08T21:29:12.261Z,24.8
2017-12-08T21:30:20.346Z,24.6
2017-12-08T21:31:28.430Z,24.8
2017-12-08T21:32:36.521Z,24.8
2017-12-08T21:33:44.613Z,24.8
2017-12-08T21:34:52.700Z,24.7
2017-12-08T21:36:00.785Z,24.8
2017-12-08T21:37:08.873Z,24.9
2017-12-08T21:38:16.961Z,24.8
2017-12-08T21:39:25.261Z,24.9
2017-12-08T21:40:33.133Z,24.8
2017-12-08T21:41:41.219Z,24.9
2017-12-08T21:42:49.313Z,24.9
2017-12-08T21:43:57.406Z,24.9
2017-12-08T21:45:05.490Z,25.0
2017-12-08T21:46:13.577Z,25.0
2017-12-08T21:47:21.664Z,25.0
2017-12-08T21:48:29.768Z,24.9
2017-12-08T21:49:37.856Z,25.0
2017-12-08T21:50:45.941Z,25.0
2017-12-08T21:51:54.033Z,25.0
2017-12-08T21:53:02.122Z,25.1
2017-12-08T21:54:10.224Z,25.1
2017-12-08T21:55:18.301Z,25.1
2017-12-08T21:56:26.381Z,25.1
2017-12-08T21:57:34.469Z,25.1
2017-12-08T21:58:42.570Z,25.1
2017-12-08T21:59:50.657Z,25.1
2017-12-08T22:00:58.738Z,25.2
2017-12-08T22:02:06.822Z,25.2
2017-12-08T22:03:14.911Z,25.2
2017-12-08T22:04:22.998Z,25.2
2017-12-08T22:05:31.088Z,25.2
2017-12-08T22:06:39.171Z,25.2
2017-12-08T22:07:47.260Z,25.2
2017-12-08T22:08:55.350Z,25.2
2017-12-08T22:10:03.440Z,25.3
2017-12-08T22:11:11.526Z,25.3
2017-12-08T22:12:19.617Z,25.3
2017-12-08T22:13:27.703Z,25.4
2017-12-08T22:14:35.831Z,25.4
2017-12-08T22:15:43.878Z,25.4
2017-12-08T22:16:51.967Z,25.4
2017-12-08T22:18:00.055Z,25.4
2017-12-08T22:19:08.143Z,25.4
2017-12-08T22:20:16.234Z,25.4
2017-12-08T22:21:24.320Z,25.3
2017-12-08T22:22:32.413Z,25.4
2017-12-08T22:23:40.504Z,25.4
2017-12-08T22:24:48.665Z,25.4
2017-12-08T22:25:56.761Z,25.4
2017-12-08T22:27:04.842Z,25.4
2017-12-08T22:28:12.930Z,25.5
2017-12-08T22:29:21.019Z,25.5
2017-12-08T22:30:29.106Z,25.5
2017-12-08T22:31:37.196Z,25.6
2017-12-08T22:32:45.282Z,25.4
2017-12-08T22:33:53.430Z,25.5
2017-12-08T22:35:01.461Z,25.6
2017-12-08T22:36:09.550Z,25.6
2017-12-08T22:37:17.634Z,25.5
2017-12-08T22:38:25.724Z,25.5
2017-12-08T22:39:33.812Z,25.5
2017-12-08T22:40:41.901Z,25.5
2017-12-08T22:41:49.989Z,25.6
2017-12-08T22:42:58.080Z,25.6
2017-12-08T22:44:06.167Z,25.6
2017-12-08T22:45:14.257Z,25.6
2017-12-08T22:46:22.342Z,25.6
2017-12-08T22:47:30.432Z,25.6
2017-12-08T22:48:38.523Z,25.6
2017-12-08T22:49:46.611Z,25.6
2017-12-08T22:50:54.701Z,25.6
2017-12-08T22:52:02.785Z,25.6
2017-12-08T22:53:10.951Z,25.6
2017-12-08T22:54:19.040Z,25.6
2017-12-08T22:55:27.130Z,25.6
2017-12-08T22:56:35.234Z,25.6
2017-12-08T22:57:43.305Z,25.7
2017-12-08T22:58:51.394Z,25.6
2017-12-08T22:59:59.748Z,25.6
2017-12-08T23:01:07.570Z,25.6
2017-12-08T23:02:15.657Z,25.6
2017-12-08T23:03:23.746Z,25.6
2017-12-08T23:04:31.834Z,25.6
2017-12-08T23:05:39.924Z,25.6
2017-12-08T23:06:48.010Z,25.6
2017-12-08T23:07:56.099Z,25.6
2017-12-08T23:09:04.187Z,25.6
2017-12-08T23:10:12.275Z,25.6
2017-12-08T23:11:20.370Z,25.6
2017-12-08T23:12:28.460Z,25.7
2017-12-08T23:13:36.549Z,25.6
2017-12-08T23:14:44.635Z,25.6
2017-12-08T23:15:52.726Z,25.7
2017-12-08T23:17:00.813Z,25.6
2017-12-08T23:18:08.902Z,25.6
2017-12-08T23:19:16.990Z,25.6
2017-12-08T23:20:25.079Z,25.6
2017-12-08T23:21:33.174Z,25.6
2017-12-08T23:22:41.256Z,25.6
2017-12-08T23:23:49.348Z,25.6
2017-12-08T23:24:57.431Z,25.6
2017-12-08T23:26:05.526Z,25.6
2017-12-08T23:27:13.608Z,25.6
2017-12-08T23:28:21.696Z,25.6
2017-12-08T23:29:29.785Z,25.6
2017-12-08T23:30:37.874Z,25.6
2017-12-08T23:31:45.984Z,25.7
2017-12-08T23:32:54.082Z,25.6
2017-12-08T23:34:02.169Z,25.6
2017-12-08T23:35:10.258Z,25.6
2017-12-08T23:36:18.346Z,25.6
2017-12-08T23:37:26.437Z,25.6
2017-12-08T23:38:34.523Z,25.6
2017-12-08T23:39:42.611Z,25.6
2017-12-08T23:40:50.698Z,25.6
2017-12-08T23:41:58.941Z,25.6
2017-12-08T23:43:07.038Z,25.7
2017-12-08T23:44:15.116Z,25.6
2017-12-08T23:45:23.212Z,25.6
2017-12-08T23:46:31.291Z,25.6
2017-12-08T23:47:39.379Z,25.6
2017-12-08T23:48:47.468Z,25.6
2017-12-08T23:49:55.556Z,25.7
2017-12-08T23:51:03.644Z,25.7
2017-12-08T23:52:11.732Z,25.7
2017-12-08T23:53:19.820Z,25.7
2017-12-08T23:54:27.910Z,25.7
2017-12-08T23:55:36.053Z,25.7
2017-12-08T23:56:44.094Z,25.7
2017-12-08T23:57:52.184Z,25.8
2017-12-08T23:59:00.271Z,25.7
